American Canyon, California
Current Conditions -  °F | °C
As of 8:10 AM on Sunday 25 Jan 2015 (Local Time) from KAPC Reporting Station
Haze Haze  
Wind Chill: 38°   Ceiling: 300
Heat Index: 42°   Visibility: 2mi
Dew Point: 42°   Wind: 6mph
Humidity: 100%   Direction: 30°NNE
Pressure: 30.17"   Gusts: NA
Location:  38.17°N, 122.25°W
Report Text: KAPC 251610Z 03005KT 2SM BR OVC003 06/06 A3017 RMK AO2 T00560056
Loading
Personal Weather Stations






























Interactive Weather Map New forecast layout! Learn more

10-Day Weather Forecast

Advertisements
Track Severe Weather on mobile